sensor_id;sensor_type;location;lat;lon;timestamp;temperature;humidity
46890;DHT22;32625;51.080;16.970;2023-09-18T00:00:46;16.60;99.90
46890;DHT22;32625;51.080;16.970;2023-09-18T00:03:13;16.60;99.90
46890;DHT22;32625;51.080;16.970;2023-09-18T00:05:40;16.50;99.90
46890;DHT22;32625;51.080;16.970;2023-09-18T00:08:07;16.60;99.90
46890;DHT22;32625;51.080;16.970;2023-09-18T00:10:34;16.60;99.90
46890;DHT22;32625;51.080;16.970;2023-09-18T00:13:01;16.60;99.90
46890;DHT22;32625;51.080;16.970;2023-09-18T00:15:30;16.50;99.90
46890;DHT22;32625;51.080;16.970;2023-09-18T00:17:57;16.50;99.90
46890;DHT22;32625;51.080;16.970;2023-09-18T00:20:24;16.50;99.90
46890;DHT22;32625;51.080;16.970;2023-09-18T00:22:55;16.50;99.90
46890;DHT22;32625;51.080;16.970;2023-09-18T00:25:23;16.40;99.90
46890;DHT22;32625;51.080;16.970;2023-09-18T00:27:50;16.40;99.90
46890;DHT22;32625;51.080;16.970;2023-09-18T00:30:18;16.40;99.90
46890;DHT22;32625;51.080;16.970;2023-09-18T00:32:45;16.40;99.90
46890;DHT22;32625;51.080;16.970;2023-09-18T00:35:14;16.30;99.90
46890;DHT22;32625;51.080;16.970;2023-09-18T00:37:41;16.30;99.90
46890;DHT22;32625;51.080;16.970;2023-09-18T00:40:10;16.30;99.90
46890;DHT22;32625;51.080;16.970;2023-09-18T00:42:37;16.30;99.90
46890;DHT22;32625;51.080;16.970;2023-09-18T00:45:04;16.30;99.90
46890;DHT22;32625;51.080;16.970;2023-09-18T00:47:32;16.30;99.90
46890;DHT22;32625;51.080;16.970;2023-09-18T00:49:59;16.30;99.90
46890;DHT22;32625;51.080;16.970;2023-09-18T00:52:26;16.30;99.90
46890;DHT22;32625;51.080;16.970;2023-09-18T00:54:54;16.20;99.90
46890;DHT22;32625;51.080;16.970;2023-09-18T00:57:23;16.20;99.90
46890;DHT22;32625;51.080;16.970;2023-09-18T00:59:50;16.20;99.90
46890;DHT22;32625;51.080;16.970;2023-09-18T01:02:17;16.30;99.90
46890;DHT22;32625;51.080;16.970;2023-09-18T01:04:48;16.30;99.90
46890;DHT22;32625;51.080;16.970;2023-09-18T01:07:16;16.30;99.90
46890;DHT22;32625;51.080;16.970;2023-09-18T01:09:43;16.30;99.90
46890;DHT22;32625;51.080;16.970;2023-09-18T01:15:07;16.30;99.90
46890;DHT22;32625;51.080;16.970;2023-09-18T01:17:37;16.30;99.90
46890;DHT22;32625;51.080;16.970;2023-09-18T01:20:11;16.30;99.90
46890;DHT22;32625;51.080;16.970;2023-09-18T01:22:39;16.30;99.90
46890;DHT22;32625;51.080;16.970;2023-09-18T01:25:06;16.30;99.90
46890;DHT22;32625;51.080;16.970;2023-09-18T01:27:34;16.40;99.90
46890;DHT22;32625;51.080;16.970;2023-09-18T01:30:01;16.40;99.90
46890;DHT22;32625;51.080;16.970;2023-09-18T01:32:30;16.30;99.90
46890;DHT22;32625;51.080;16.970;2023-09-18T01:35:00;16.30;99.90
46890;DHT22;32625;51.080;16.970;2023-09-18T01:37:30;16.30;99.90
46890;DHT22;32625;51.080;16.970;2023-09-18T01:39:57;16.30;99.90
46890;DHT22;32625;51.080;16.970;2023-09-18T01:42:27;16.30;99.90
46890;DHT22;32625;51.080;16.970;2023-09-18T01:44:54;16.30;99.90
46890;DHT22;32625;51.080;16.970;2023-09-18T01:47:22;16.30;99.90
46890;DHT22;32625;51.080;16.970;2023-09-18T01:49:54;16.30;99.90
46890;DHT22;32625;51.080;16.970;2023-09-18T01:52:21;16.30;99.90
46890;DHT22;32625;51.080;16.970;2023-09-18T01:54:48;16.30;99.90
46890;DHT22;32625;51.080;16.970;2023-09-18T01:57:15;16.30;99.90
46890;DHT22;32625;51.080;16.970;2023-09-18T01:59:42;16.30;99.90
46890;DHT22;32625;51.080;16.970;2023-09-18T02:02:10;16.30;99.90
46890;DHT22;32625;51.080;16.970;2023-09-18T02:04:47;16.30;99.90
46890;DHT22;32625;51.080;16.970;2023-09-18T02:07:34;16.30;99.90
46890;DHT22;32625;51.080;16.970;2023-09-18T02:10:01;16.20;99.90
46890;DHT22;32625;51.080;16.970;2023-09-18T02:12:28;16.20;99.90
46890;DHT22;32625;51.080;16.970;2023-09-18T02:14:55;16.20;99.90
46890;DHT22;32625;51.080;16.970;2023-09-18T02:17:24;16.20;99.90
46890;DHT22;32625;51.080;16.970;2023-09-18T02:19:51;16.20;99.90
46890;DHT22;32625;51.080;16.970;2023-09-18T02:22:18;16.20;99.90
46890;DHT22;32625;51.080;16.970;2023-09-18T02:24:45;16.20;99.90
46890;DHT22;32625;51.080;16.970;2023-09-18T02:27:12;16.20;99.90
46890;DHT22;32625;51.080;16.970;2023-09-18T02:29:41;16.10;99.90
46890;DHT22;32625;51.080;16.970;2023-09-18T02:32:07;16.20;99.90
46890;DHT22;32625;51.080;16.970;2023-09-18T02:34:37;16.20;99.90
46890;DHT22;32625;51.080;16.970;2023-09-18T02:37:04;16.20;99.90
46890;DHT22;32625;51.080;16.970;2023-09-18T02:39:31;16.20;99.90
46890;DHT22;32625;51.080;16.970;2023-09-18T02:41:58;16.20;99.90
46890;DHT22;32625;51.080;16.970;2023-09-18T02:44:24;16.20;99.90
46890;DHT22;32625;51.080;16.970;2023-09-18T02:46:51;16.10;99.90
46890;DHT22;32625;51.080;16.970;2023-09-18T02:49:19;16.10;99.90
46890;DHT22;32625;51.080;16.970;2023-09-18T02:51:47;16.10;99.90
46890;DHT22;32625;51.080;16.970;2023-09-18T02:54:16;16.10;99.90
46890;DHT22;32625;51.080;16.970;2023-09-18T02:56:43;16.10;99.90
46890;DHT22;32625;51.080;16.970;2023-09-18T02:59:10;16.10;99.90
46890;DHT22;32625;51.080;16.970;2023-09-18T03:01:37;16.10;99.90
46890;DHT22;32625;51.080;16.970;2023-09-18T03:04:04;16.10;99.90
46890;DHT22;32625;51.080;16.970;2023-09-18T03:06:31;16.10;99.90
46890;DHT22;32625;51.080;16.970;2023-09-18T03:08:58;16.10;99.90
46890;DHT22;32625;51.080;16.970;2023-09-18T03:11:25;16.00;99.90
46890;DHT22;32625;51.080;16.970;2023-09-18T03:13:56;16.00;99.90
46890;DHT22;32625;51.080;16.970;2023-09-18T03:16:23;16.00;99.90
46890;DHT22;32625;51.080;16.970;2023-09-18T03:18:50;16.00;99.90
46890;DHT22;32625;51.080;16.970;2023-09-18T03:21:17;16.00;99.90
46890;DHT22;32625;51.080;16.970;2023-09-18T03:23:44;16.00;99.90
46890;DHT22;32625;51.080;16.970;2023-09-18T03:26:11;16.00;99.90
46890;DHT22;32625;51.080;16.970;2023-09-18T03:28:38;16.00;99.90
46890;DHT22;32625;51.080;16.970;2023-09-18T03:31:05;15.90;99.90
46890;DHT22;32625;51.080;16.970;2023-09-18T03:33:34;15.90;99.90
46890;DHT22;32625;51.080;16.970;2023-09-18T03:36:01;15.90;99.90
46890;DHT22;32625;51.080;16.970;2023-09-18T03:38:32;15.90;99.90
46890;DHT22;32625;51.080;16.970;2023-09-18T03:41:02;16.00;99.90
46890;DHT22;32625;51.080;16.970;2023-09-18T03:43:29;15.90;99.90
46890;DHT22;32625;51.080;16.970;2023-09-18T03:46:06;15.90;99.90
46890;DHT22;32625;51.080;16.970;2023-09-18T03:48:43;15.90;99.90
46890;DHT22;32625;51.080;16.970;2023-09-18T03:51:10;15.90;99.90
46890;DHT22;32625;51.080;16.970;2023-09-18T03:53:38;15.90;99.90
46890;DHT22;32625;51.080;16.970;2023-09-18T03:56:05;15.90;99.90
46890;DHT22;32625;51.080;16.970;2023-09-18T03:58:32;15.80;99.90
46890;DHT22;32625;51.080;16.970;2023-09-18T04:01:02;15.80;99.90
46890;DHT22;32625;51.080;16.970;2023-09-18T04:03:29;15.80;99.90
46890;DHT22;32625;51.080;16.970;2023-09-18T04:05:58;15.90;99.90
46890;DHT22;32625;51.080;16.970;2023-09-18T04:08:25;15.80;99.90
46890;DHT22;32625;51.080;16.970;2023-09-18T04:10:54;15.80;99.90
46890;DHT22;32625;51.080;16.970;2023-09-18T04:13:23;15.90;99.90
46890;DHT22;32625;51.080;16.970;2023-09-18T04:15:52;15.80;99.90
46890;DHT22;32625;51.080;16.970;2023-09-18T04:18:24;15.80;99.90
46890;DHT22;32625;51.080;16.970;2023-09-18T04:20:51;15.80;99.90
46890;DHT22;32625;51.080;16.970;2023-09-18T04:23:23;15.80;99.90
46890;DHT22;32625;51.080;16.970;2023-09-18T04:25:53;15.80;99.90
46890;DHT22;32625;51.080;16.970;2023-09-18T04:28:22;15.80;99.90
46890;DHT22;32625;51.080;16.970;2023-09-18T04:30:49;15.80;99.90
46890;DHT22;32625;51.080;16.970;2023-09-18T04:33:17;15.80;99.90
46890;DHT22;32625;51.080;16.970;2023-09-18T04:35:46;15.80;99.90
46890;DHT22;32625;51.080;16.970;2023-09-18T04:38:13;15.80;99.90
46890;DHT22;32625;51.080;16.970;2023-09-18T04:40:43;15.70;99.90
46890;DHT22;32625;51.080;16.970;2023-09-18T04:43:11;15.80;99.90
46890;DHT22;32625;51.080;16.970;2023-09-18T04:45:38;15.70;99.90
46890;DHT22;32625;51.080;16.970;2023-09-18T04:48:06;15.70;99.90
46890;DHT22;32625;51.080;16.970;2023-09-18T04:50:35;15.70;99.90
46890;DHT22;32625;51.080;16.970;2023-09-18T04:53:02;15.70;99.90
46890;DHT22;32625;51.080;16.970;2023-09-18T04:55:31;15.70;99.90
46890;DHT22;32625;51.080;16.970;2023-09-18T04:57:58;15.70;99.90
46890;DHT22;32625;51.080;16.970;2023-09-18T05:00:26;15.70;99.90
46890;DHT22;32625;51.080;16.970;2023-09-18T05:02:57;15.70;99.90
46890;DHT22;32625;51.080;16.970;2023-09-18T05:05:28;15.70;99.90
46890;DHT22;32625;51.080;16.970;2023-09-18T05:07:56;15.70;99.90
46890;DHT22;32625;51.080;16.970;2023-09-18T05:10:24;15.80;99.90
46890;DHT22;32625;51.080;16.970;2023-09-18T05:12:51;15.70;99.90
46890;DHT22;32625;51.080;16.970;2023-09-18T05:15:26;15.70;99.90
46890;DHT22;32625;51.080;16.970;2023-09-18T05:17:53;15.70;99.90
46890;DHT22;32625;51.080;16.970;2023-09-18T05:20:22;15.80;99.90
46890;DHT22;32625;51.080;16.970;2023-09-18T05:22:52;15.70;99.90
46890;DHT22;32625;51.080;16.970;2023-09-18T05:25:24;15.80;99.90
46890;DHT22;32625;51.080;16.970;2023-09-18T05:27:56;15.80;99.90
46890;DHT22;32625;51.080;16.970;2023-09-18T05:30:34;15.80;99.90
46890;DHT22;32625;51.080;16.970;2023-09-18T05:33:03;15.90;99.90
46890;DHT22;32625;51.080;16.970;2023-09-18T05:35:41;15.80;99.90
46890;DHT22;32625;51.080;16.970;2023-09-18T05:38:10;15.90;99.90
46890;DHT22;32625;51.080;16.970;2023-09-18T05:40:38;15.90;99.90
46890;DHT22;32625;51.080;16.970;2023-09-18T05:43:05;15.90;99.90
46890;DHT22;32625;51.080;16.970;2023-09-18T05:45:32;15.90;99.90
46890;DHT22;32625;51.080;16.970;2023-09-18T05:48:00;16.00;99.90
46890;DHT22;32625;51.080;16.970;2023-09-18T05:50:35;16.00;99.90
46890;DHT22;32625;51.080;16.970;2023-09-18T05:53:05;16.00;99.90
46890;DHT22;32625;51.080;16.970;2023-09-18T05:55:33;16.10;99.90
46890;DHT22;32625;51.080;16.970;2023-09-18T05:58:01;16.10;99.90
46890;DHT22;32625;51.080;16.970;2023-09-18T06:00:30;16.10;99.90
46890;DHT22;32625;51.080;16.970;2023-09-18T06:02:58;16.10;99.90
46890;DHT22;32625;51.080;16.970;2023-09-18T06:05:26;16.20;99.90
46890;DHT22;32625;51.080;16.970;2023-09-18T06:07:53;16.20;99.90
46890;DHT22;32625;51.080;16.970;2023-09-18T06:10:20;16.20;99.90
46890;DHT22;32625;51.080;16.970;2023-09-18T06:12:48;16.30;99.90
46890;DHT22;32625;51.080;16.970;2023-09-18T06:15:15;16.30;99.90
46890;DHT22;32625;51.080;16.970;2023-09-18T06:17:43;16.30;99.90
46890;DHT22;32625;51.080;16.970;2023-09-18T06:20:11;16.40;99.90
46890;DHT22;32625;51.080;16.970;2023-09-18T06:22:43;16.40;99.90
46890;DHT22;32625;51.080;16.970;2023-09-18T06:25:10;16.50;99.90
46890;DHT22;32625;51.080;16.970;2023-09-18T06:27:37;16.50;99.90
46890;DHT22;32625;51.080;16.970;2023-09-18T06:30:05;16.50;99.90
46890;DHT22;32625;51.080;16.970;2023-09-18T06:32:33;16.60;99.90
46890;DHT22;32625;51.080;16.970;2023-09-18T06:35:00;16.70;99.90
46890;DHT22;32625;51.080;16.970;2023-09-18T06:37:28;16.70;99.90
46890;DHT22;32625;51.080;16.970;2023-09-18T06:39:55;16.80;99.90
46890;DHT22;32625;51.080;16.970;2023-09-18T06:42:23;16.80;99.90
46890;DHT22;32625;51.080;16.970;2023-09-18T06:44:56;16.90;99.90
46890;DHT22;32625;51.080;16.970;2023-09-18T06:47:23;17.00;99.90
46890;DHT22;32625;51.080;16.970;2023-09-18T06:49:51;17.00;99.90
46890;DHT22;32625;51.080;16.970;2023-09-18T06:52:18;17.00;99.90
46890;DHT22;32625;51.080;16.970;2023-09-18T06:54:45;17.10;99.90
46890;DHT22;32625;51.080;16.970;2023-09-18T06:57:12;17.20;99.90
46890;DHT22;32625;51.080;16.970;2023-09-18T06:59:39;17.20;99.90
46890;DHT22;32625;51.080;16.970;2023-09-18T07:02:06;17.30;99.90
46890;DHT22;32625;51.080;16.970;2023-09-18T07:04:34;17.30;99.90
46890;DHT22;32625;51.080;16.970;2023-09-18T07:07:00;17.30;99.90
46890;DHT22;32625;51.080;16.970;2023-09-18T07:09:27;17.30;99.90
46890;DHT22;32625;51.080;16.970;2023-09-18T07:11:54;17.40;99.90
46890;DHT22;32625;51.080;16.970;2023-09-18T07:14:22;17.50;99.90
46890;DHT22;32625;51.080;16.970;2023-09-18T07:16:49;17.60;99.90
46890;DHT22;32625;51.080;16.970;2023-09-18T07:19:16;17.60;99.90
46890;DHT22;32625;51.080;16.970;2023-09-18T07:21:44;17.70;99.90
46890;DHT22;32625;51.080;16.970;2023-09-18T07:24:11;17.70;99.90
46890;DHT22;32625;51.080;16.970;2023-09-18T07:26:47;17.80;99.90
46890;DHT22;32625;51.080;16.970;2023-09-18T07:29:15;17.80;99.90
46890;DHT22;32625;51.080;16.970;2023-09-18T07:31:43;17.90;99.90
46890;DHT22;32625;51.080;16.970;2023-09-18T07:34:10;18.00;99.90
46890;DHT22;32625;51.080;16.970;2023-09-18T07:36:40;18.00;99.90
46890;DHT22;32625;51.080;16.970;2023-09-18T07:39:07;18.10;99.90
46890;DHT22;32625;51.080;16.970;2023-09-18T07:41:34;18.20;99.90
46890;DHT22;32625;51.080;16.970;2023-09-18T07:44:01;18.30;99.90
46890;DHT22;32625;51.080;16.970;2023-09-18T07:46:28;18.30;99.90
46890;DHT22;32625;51.080;16.970;2023-09-18T07:48:55;18.40;99.90
46890;DHT22;32625;51.080;16.970;2023-09-18T07:51:22;18.60;99.90
46890;DHT22;32625;51.080;16.970;2023-09-18T07:53:50;18.60;99.90
46890;DHT22;32625;51.080;16.970;2023-09-18T07:56:17;18.70;99.90
46890;DHT22;32625;51.080;16.970;2023-09-18T07:58:45;18.90;99.90
46890;DHT22;32625;51.080;16.970;2023-09-18T08:01:14;19.00;99.90
46890;DHT22;32625;51.080;16.970;2023-09-18T08:03:42;19.10;99.90
46890;DHT22;32625;51.080;16.970;2023-09-18T08:06:10;19.20;99.90
46890;DHT22;32625;51.080;16.970;2023-09-18T08:08:38;19.10;99.90
46890;DHT22;32625;51.080;16.970;2023-09-18T08:11:09;19.20;99.90
46890;DHT22;32625;51.080;16.970;2023-09-18T08:13:37;19.40;99.90
46890;DHT22;32625;51.080;16.970;2023-09-18T08:16:07;19.50;99.90
46890;DHT22;32625;51.080;16.970;2023-09-18T08:18:35;19.60;99.90
46890;DHT22;32625;51.080;16.970;2023-09-18T08:21:02;19.80;99.90
46890;DHT22;32625;51.080;16.970;2023-09-18T08:23:31;19.80;99.90
46890;DHT22;32625;51.080;16.970;2023-09-18T08:25:59;19.90;99.90
46890;DHT22;32625;51.080;16.970;2023-09-18T08:28:26;20.00;99.90
46890;DHT22;32625;51.080;16.970;2023-09-18T08:30:54;20.00;99.90
46890;DHT22;32625;51.080;16.970;2023-09-18T08:33:21;20.00;99.90
46890;DHT22;32625;51.080;16.970;2023-09-18T08:35:48;20.00;99.90
46890;DHT22;32625;51.080;16.970;2023-09-18T08:38:16;20.10;99.90
46890;DHT22;32625;51.080;16.970;2023-09-18T08:40:44;20.10;99.90
46890;DHT22;32625;51.080;16.970;2023-09-18T08:43:12;20.20;99.90
46890;DHT22;32625;51.080;16.970;2023-09-18T08:48:21;20.30;99.90
46890;DHT22;32625;51.080;16.970;2023-09-18T08:50:48;20.40;99.90
46890;DHT22;32625;51.080;16.970;2023-09-18T08:53:16;20.40;99.90
46890;DHT22;32625;51.080;16.970;2023-09-18T08:55:43;20.50;99.90
46890;DHT22;32625;51.080;16.970;2023-09-18T08:58:10;20.70;99.90
46890;DHT22;32625;51.080;16.970;2023-09-18T09:00:37;20.80;99.90
46890;DHT22;32625;51.080;16.970;2023-09-18T09:03:05;20.80;99.90
46890;DHT22;32625;51.080;16.970;2023-09-18T09:05:32;20.90;99.90
46890;DHT22;32625;51.080;16.970;2023-09-18T09:08:00;20.90;99.90
46890;DHT22;32625;51.080;16.970;2023-09-18T09:10:30;21.00;99.90
46890;DHT22;32625;51.080;16.970;2023-09-18T09:13:03;21.10;99.90
46890;DHT22;32625;51.080;16.970;2023-09-18T09:15:43;21.30;99.90
46890;DHT22;32625;51.080;16.970;2023-09-18T09:18:15;21.50;99.90
46890;DHT22;32625;51.080;16.970;2023-09-18T09:20:55;21.60;99.90
46890;DHT22;32625;51.080;16.970;2023-09-18T09:23:25;21.70;99.90
46890;DHT22;32625;51.080;16.970;2023-09-18T09:25:53;21.70;99.90
46890;DHT22;32625;51.080;16.970;2023-09-18T09:28:30;21.70;99.90
46890;DHT22;32625;51.080;16.970;2023-09-18T09:31:01;22.00;99.90
46890;DHT22;32625;51.080;16.970;2023-09-18T09:33:30;22.10;99.90
46890;DHT22;32625;51.080;16.970;2023-09-18T09:35:57;22.20;99.90
46890;DHT22;32625;51.080;16.970;2023-09-18T09:38:31;22.40;99.90
46890;DHT22;32625;51.080;16.970;2023-09-18T09:40:59;22.30;99.90
46890;DHT22;32625;51.080;16.970;2023-09-18T09:43:27;22.40;99.90
46890;DHT22;32625;51.080;16.970;2023-09-18T09:46:01;22.50;99.90
46890;DHT22;32625;51.080;16.970;2023-09-18T09:48:28;22.50;99.90
46890;DHT22;32625;51.080;16.970;2023-09-18T09:51:00;22.60;99.90
46890;DHT22;32625;51.080;16.970;2023-09-18T09:53:44;22.60;99.90
46890;DHT22;32625;51.080;16.970;2023-09-18T09:56:15;22.70;99.90
46890;DHT22;32625;51.080;16.970;2023-09-18T09:59:04;22.90;99.90
46890;DHT22;32625;51.080;16.970;2023-09-18T10:01:35;23.10;99.90
46890;DHT22;32625;51.080;16.970;2023-09-18T10:04:14;23.20;99.90
46890;DHT22;32625;51.080;16.970;2023-09-18T10:06:55;23.30;99.90
46890;DHT22;32625;51.080;16.970;2023-09-18T10:09:23;23.50;99.90
46890;DHT22;32625;51.080;16.970;2023-09-18T10:11:52;23.60;99.90
46890;DHT22;32625;51.080;16.970;2023-09-18T10:14:29;23.60;99.90
46890;DHT22;32625;51.080;16.970;2023-09-18T10:17:19;23.60;99.90
46890;DHT22;32625;51.080;16.970;2023-09-18T10:19:58;23.70;99.90
46890;DHT22;32625;51.080;16.970;2023-09-18T10:22:45;23.80;99.90
46890;DHT22;32625;51.080;16.970;2023-09-18T10:25:27;23.90;99.90
46890;DHT22;32625;51.080;16.970;2023-09-18T10:27:56;23.80;99.90
46890;DHT22;32625;51.080;16.970;2023-09-18T10:30:25;23.90;99.90
46890;DHT22;32625;51.080;16.970;2023-09-18T10:32:53;24.00;99.90
46890;DHT22;32625;51.080;16.970;2023-09-18T10:35:22;24.10;99.90
46890;DHT22;32625;51.080;16.970;2023-09-18T10:37:49;24.10;99.90
46890;DHT22;32625;51.080;16.970;2023-09-18T10:40:19;24.10;99.90
46890;DHT22;32625;51.080;16.970;2023-09-18T10:42:48;24.00;99.90
46890;DHT22;32625;51.080;16.970;2023-09-18T10:45:17;24.10;99.90
46890;DHT22;32625;51.080;16.970;2023-09-18T10:47:45;24.30;99.90
46890;DHT22;32625;51.080;16.970;2023-09-18T10:50:23;24.40;99.90
46890;DHT22;32625;51.080;16.970;2023-09-18T10:52:51;24.50;99.90
46890;DHT22;32625;51.080;16.970;2023-09-18T10:55:18;24.50;99.90
46890;DHT22;32625;51.080;16.970;2023-09-18T10:57:59;24.60;99.90
46890;DHT22;32625;51.080;16.970;2023-09-18T11:00:28;24.60;99.90
46890;DHT22;32625;51.080;16.970;2023-09-18T11:03:14;24.60;99.90
46890;DHT22;32625;51.080;16.970;2023-09-18T11:05:46;24.40;99.90
46890;DHT22;32625;51.080;16.970;2023-09-18T11:08:34;24.40;99.90
46890;DHT22;32625;51.080;16.970;2023-09-18T11:11:06;24.60;99.90
46890;DHT22;32625;51.080;16.970;2023-09-18T11:13:48;24.70;99.90
46890;DHT22;32625;51.080;16.970;2023-09-18T11:18:54;24.70;99.90
46890;DHT22;32625;51.080;16.970;2023-09-18T11:21:32;24.80;99.90
46890;DHT22;32625;51.080;16.970;2023-09-18T11:23:59;24.90;99.90
46890;DHT22;32625;51.080;16.970;2023-09-18T11:26:34;24.80;99.90
46890;DHT22;32625;51.080;16.970;2023-09-18T11:29:06;24.90;99.90
46890;DHT22;32625;51.080;16.970;2023-09-18T11:31:50;24.80;99.90
46890;DHT22;32625;51.080;16.970;2023-09-18T11:34:23;25.00;99.90
46890;DHT22;32625;51.080;16.970;2023-09-18T11:36:50;25.20;99.50
46890;DHT22;32625;51.080;16.970;2023-09-18T11:39:40;25.10;99.90
46890;DHT22;32625;51.080;16.970;2023-09-18T11:42:13;25.10;99.50
46890;DHT22;32625;51.080;16.970;2023-09-18T11:44:40;25.30;99.80
46890;DHT22;32625;51.080;16.970;2023-09-18T11:47:16;25.30;99.70
46890;DHT22;32625;51.080;16.970;2023-09-18T11:49:52;25.30;96.40
46890;DHT22;32625;51.080;16.970;2023-09-18T11:52:28;25.20;96.10
46890;DHT22;32625;51.080;16.970;2023-09-18T11:54:58;25.20;94.50
46890;DHT22;32625;51.080;16.970;2023-09-18T11:57:25;25.40;94.50
46890;DHT22;32625;51.080;16.970;2023-09-18T11:59:53;25.30;95.10
46890;DHT22;32625;51.080;16.970;2023-09-18T12:02:29;25.40;95.20
46890;DHT22;32625;51.080;16.970;2023-09-18T12:05:10;25.40;95.00
46890;DHT22;32625;51.080;16.970;2023-09-18T12:07:39;25.60;94.60
46890;DHT22;32625;51.080;16.970;2023-09-18T12:10:11;25.50;94.80
46890;DHT22;32625;51.080;16.970;2023-09-18T12:12:38;25.60;94.10
46890;DHT22;32625;51.080;16.970;2023-09-18T12:15:06;25.50;92.40
46890;DHT22;32625;51.080;16.970;2023-09-18T12:17:33;25.60;91.40
46890;DHT22;32625;51.080;16.970;2023-09-18T12:20:00;25.50;92.70
46890;DHT22;32625;51.080;16.970;2023-09-18T12:22:28;25.40;93.70
46890;DHT22;32625;51.080;16.970;2023-09-18T12:25:14;25.40;94.00
46890;DHT22;32625;51.080;16.970;2023-09-18T12:27:43;25.40;94.00
46890;DHT22;32625;51.080;16.970;2023-09-18T12:30:12;25.40;93.50
46890;DHT22;32625;51.080;16.970;2023-09-18T12:32:42;25.50;92.20
46890;DHT22;32625;51.080;16.970;2023-09-18T12:35:09;25.40;92.30
46890;DHT22;32625;51.080;16.970;2023-09-18T12:37:40;25.50;91.40
46890;DHT22;32625;51.080;16.970;2023-09-18T12:40:29;25.50;91.50
46890;DHT22;32625;51.080;16.970;2023-09-18T12:42:57;25.40;91.80
46890;DHT22;32625;51.080;16.970;2023-09-18T12:45:25;25.30;91.40
46890;DHT22;32625;51.080;16.970;2023-09-18T12:47:55;25.30;91.90
46890;DHT22;32625;51.080;16.970;2023-09-18T12:50:24;25.40;91.30
46890;DHT22;32625;51.080;16.970;2023-09-18T12:52:51;25.50;90.90
46890;DHT22;32625;51.080;16.970;2023-09-18T12:55:25;25.60;90.40
46890;DHT22;32625;51.080;16.970;2023-09-18T12:57:53;25.50;91.50
46890;DHT22;32625;51.080;16.970;2023-09-18T13:00:21;25.30;92.00
46890;DHT22;32625;51.080;16.970;2023-09-18T13:02:50;25.30;91.10
46890;DHT22;32625;51.080;16.970;2023-09-18T13:05:23;25.30;91.10
46890;DHT22;32625;51.080;16.970;2023-09-18T13:07:54;25.20;91.20
46890;DHT22;32625;51.080;16.970;2023-09-18T13:10:22;25.30;91.40
46890;DHT22;32625;51.080;16.970;2023-09-18T13:12:54;25.30;90.90
46890;DHT22;32625;51.080;16.970;2023-09-18T13:17:59;25.20;92.20
46890;DHT22;32625;51.080;16.970;2023-09-18T13:20:28;25.20;91.50
46890;DHT22;32625;51.080;16.970;2023-09-18T13:22:57;25.20;91.10
46890;DHT22;32625;51.080;16.970;2023-09-18T13:25:45;25.30;91.60
46890;DHT22;32625;51.080;16.970;2023-09-18T13:28:14;25.30;92.20
46890;DHT22;32625;51.080;16.970;2023-09-18T13:30:42;25.30;92.20
46890;DHT22;32625;51.080;16.970;2023-09-18T13:33:12;25.50;92.40
46890;DHT22;32625;51.080;16.970;2023-09-18T13:35:41;25.60;91.90
46890;DHT22;32625;51.080;16.970;2023-09-18T13:38:09;25.70;92.10
46890;DHT22;32625;51.080;16.970;2023-09-18T13:40:38;25.60;92.80
46890;DHT22;32625;51.080;16.970;2023-09-18T13:43:06;25.70;91.60
46890;DHT22;32625;51.080;16.970;2023-09-18T13:45:34;25.70;91.60
46890;DHT22;32625;51.080;16.970;2023-09-18T13:48:05;25.50;91.90
46890;DHT22;32625;51.080;16.970;2023-09-18T13:50:34;25.50;93.00
46890;DHT22;32625;51.080;16.970;2023-09-18T13:53:02;25.40;94.30
46890;DHT22;32625;51.080;16.970;2023-09-18T13:55:31;25.20;95.50
46890;DHT22;32625;51.080;16.970;2023-09-18T13:57:58;25.20;93.70
46890;DHT22;32625;51.080;16.970;2023-09-18T14:00:25;25.10;93.20
46890;DHT22;32625;51.080;16.970;2023-09-18T14:02:53;25.10;93.50
46890;DHT22;32625;51.080;16.970;2023-09-18T14:05:21;24.90;94.80
46890;DHT22;32625;51.080;16.970;2023-09-18T14:07:48;24.90;93.70
46890;DHT22;32625;51.080;16.970;2023-09-18T14:10:15;25.00;93.30
46890;DHT22;32625;51.080;16.970;2023-09-18T14:12:45;25.00;94.90
46890;DHT22;32625;51.080;16.970;2023-09-18T14:15:12;24.80;96.80
46890;DHT22;32625;51.080;16.970;2023-09-18T14:17:39;24.80;96.20
46890;DHT22;32625;51.080;16.970;2023-09-18T14:20:06;25.00;96.00
46890;DHT22;32625;51.080;16.970;2023-09-18T14:22:34;25.00;95.70
46890;DHT22;32625;51.080;16.970;2023-09-18T14:25:03;25.10;95.20
46890;DHT22;32625;51.080;16.970;2023-09-18T14:27:33;25.20;93.70
46890;DHT22;32625;51.080;16.970;2023-09-18T14:30:05;25.10;94.30
46890;DHT22;32625;51.080;16.970;2023-09-18T14:32:34;25.10;94.70
46890;DHT22;32625;51.080;16.970;2023-09-18T14:35:04;25.10;95.40
46890;DHT22;32625;51.080;16.970;2023-09-18T14:37:32;25.00;96.50
46890;DHT22;32625;51.080;16.970;2023-09-18T14:39:59;25.00;95.40
46890;DHT22;32625;51.080;16.970;2023-09-18T14:42:26;24.90;96.30
46890;DHT22;32625;51.080;16.970;2023-09-18T14:44:53;24.80;97.30
46890;DHT22;32625;51.080;16.970;2023-09-18T14:47:20;24.80;98.80
46890;DHT22;32625;51.080;16.970;2023-09-18T14:49:51;24.60;99.80
46890;DHT22;32625;51.080;16.970;2023-09-18T14:52:18;24.60;98.70
46890;DHT22;32625;51.080;16.970;2023-09-18T14:54:46;24.60;98.50
46890;DHT22;32625;51.080;16.970;2023-09-18T14:57:13;24.70;96.20
46890;DHT22;32625;51.080;16.970;2023-09-18T14:59:41;24.60;99.40
46890;DHT22;32625;51.080;16.970;2023-09-18T15:02:14;24.70;97.60
46890;DHT22;32625;51.080;16.970;2023-09-18T15:04:43;24.60;97.40
46890;DHT22;32625;51.080;16.970;2023-09-18T15:07:10;24.60;95.80
46890;DHT22;32625;51.080;16.970;2023-09-18T15:09:38;24.60;94.80
46890;DHT22;32625;51.080;16.970;2023-09-18T15:12:06;24.50;95.40
46890;DHT22;32625;51.080;16.970;2023-09-18T15:14:38;24.40;95.40
46890;DHT22;32625;51.080;16.970;2023-09-18T15:17:05;24.30;95.80
46890;DHT22;32625;51.080;16.970;2023-09-18T15:19:34;24.40;95.40
46890;DHT22;32625;51.080;16.970;2023-09-18T15:22:01;24.20;96.60
46890;DHT22;32625;51.080;16.970;2023-09-18T15:24:29;24.10;95.80
46890;DHT22;32625;51.080;16.970;2023-09-18T15:26:56;24.20;95.80
46890;DHT22;32625;51.080;16.970;2023-09-18T15:29:24;24.10;95.90
46890;DHT22;32625;51.080;16.970;2023-09-18T15:31:51;23.90;97.00
46890;DHT22;32625;51.080;16.970;2023-09-18T15:34:18;23.90;97.60
46890;DHT22;32625;51.080;16.970;2023-09-18T15:36:45;23.90;97.50
46890;DHT22;32625;51.080;16.970;2023-09-18T15:39:12;23.80;98.70